»·PEaware :: KLM691 KSNA-KSAN

KLM691 :: KSNA-KSAN

FLIGHT INFORMATION

Flight Status: Arrived
Operator:
KLM
More flights by this operator :: More flights under this callsign
Pilot: Thomas N. (7419)
Aircraft: SAAB 340
(SF34)
More flights by this aircraft type
Origin: KSNA John Wayne-Orange Co
United States
Destination: KSAN San Diego Intl-Lindbergh
United States
More flights between these airports :: More routes between these airports
Route: V25 PACIF V208 LAX118 CARDI MZB320 MZB
File this flight plan on PilotEdge
Remarks:
Altitude:
(Current/Filed)
11,000ft
Speed:
(Current/Filed)
220kts
Departed: 19-Nov-15 06:07 PM
Arrived: 19-Nov-15 06:32 PM
Distance/Time
Traveled:
66nm/0:25
Distance/Time
To Go:
Arrived

Flight Plot

Page will automatically refresh every two minutes.


Map Options




Map Legend


Flown Route
Filed Route
Departure Airport
Arrival Airport
Navaid (VOR, NDB)
Fix

Horizontal Profiles

Position Reports

Time Latitude Longitude Heading Altitude Ground
Speed
19-Nov-15 17:43 33.682412 -117.860352 118 61ft 0kts
19-Nov-15 17:44 33.682412 -117.860352 118 61ft 0kts
19-Nov-15 17:45 33.682412 -117.860352 118 61ft 0kts
19-Nov-15 17:46 33.682412 -117.860352 118 61ft 0kts
19-Nov-15 17:47 33.682412 -117.860352 118 61ft 0kts
19-Nov-15 17:48 33.682412 -117.860352 118 61ft 0kts
19-Nov-15 17:49 33.682412 -117.860352 118 61ft 0kts
19-Nov-15 17:50 33.682412 -117.860352 118 61ft 0kts
19-Nov-15 17:51 33.682412 -117.860352 118 61ft 0kts
19-Nov-15 17:52 33.682412 -117.860352 118 61ft 0kts
19-Nov-15 17:53 33.682412 -117.860352 118 61ft 0kts
19-Nov-15 17:54 33.682412 -117.860352 118 61ft 0kts
19-Nov-15 17:55 33.682412 -117.860352 118 61ft 0kts
19-Nov-15 17:56 33.682561 -117.860568 273 61ft 4kts
19-Nov-15 17:57 33.681797 -117.861381 208 61ft 6kts
19-Nov-15 17:58 33.681069 -117.861910 211 61ft 7kts
19-Nov-15 17:59 33.680625 -117.862408 250 61ft 0kts
19-Nov-15 18:00 33.680578 -117.862588 256 61ft 4kts
19-Nov-15 18:01 33.680689 -117.863092 297 61ft 0kts
19-Nov-15 18:02 33.681066 -117.863972 298 61ft 9kts
19-Nov-15 18:03 33.681162 -117.864192 297 61ft 0kts
19-Nov-15 18:04 33.680812 -117.865594 207 61ft 28kts
19-Nov-15 18:05 33.648448 -117.876497 186 1217ft 166kts
19-Nov-15 18:06 33.603391 -117.883042 189 3142ft 165kts
19-Nov-15 18:07 33.557445 -117.890274 189 4792ft 169kts
19-Nov-15 18:08 33.510309 -117.897432 188 6282ft 173kts
19-Nov-15 18:09 33.462005 -117.903518 188 7613ft 176kts
19-Nov-15 18:10 33.417742 -117.883366 143 8772ft 182kts
19-Nov-15 18:11 33.378384 -117.844374 141 9832ft 185kts
19-Nov-15 18:12 33.339135 -117.803642 140 10789ft 188kts
19-Nov-15 18:13 33.297831 -117.760540 140 11194ft 208kts
19-Nov-15 18:14 33.275106 -117.691293 97 10356ft 251kts
19-Nov-15 18:15 33.264119 -117.605288 101 9489ft 271kts
19-Nov-15 18:15 33.235655 -117.541369 139 8971ft 264kts
19-Nov-15 18:16 33.184913 -117.482189 135 8955ft 250kts
19-Nov-15 18:17 33.136764 -117.422613 138 8960ft 249kts
19-Nov-15 18:18 33.074874 -117.387156 157 8967ft 248kts
19-Nov-15 18:19 33.012766 -117.353210 156 8132ft 240kts
19-Nov-15 18:20 32.952962 -117.320082 156 6852ft 239kts
19-Nov-15 18:21 32.891979 -117.287021 164 5451ft 243kts
19-Nov-15 18:22 32.827078 -117.287762 193 3129ft 216kts
19-Nov-15 18:23 32.769633 -117.279613 143 1113ft 205kts
19-Nov-15 18:24 32.743943 -117.230617 99 1045ft 170kts
19-Nov-15 18:25 32.713402 -117.188778 138 1688ft 193kts
19-Nov-15 18:26 32.682107 -117.145803 87 1738ft 160kts
19-Nov-15 18:27 32.706079 -117.121255 0 1190ft 128kts
19-Nov-15 18:28 32.724746 -117.153520 287 540ft 126kts
19-Nov-15 18:29 32.733564 -117.189684 285 22ft 37kts
19-Nov-15 18:30 32.733180 -117.191771 235 22ft 1kts
19-Nov-15 18:31 32.731653 -117.193351 261 22ft 0kts
19-Nov-15 18:33 32.731653 -117.193354 261 22ft 0kts

Navigation Log

Ident Type
Flight plan parsing failed, navigation log unavailable